Time;durP1;ratioP1;P1;durP2;ratioP2;P2;SDS_P1;SDS_P2;PMS_P1;PMS_P2;Temp;Humidity;BMP_temperature;BMP_pressure;BME280_temperature;BME280_humidity;BME280_pressure;Samples;Min_cycle;Max_cycle;Signal;HPM_P1;HPM_P2
2023/10/05 00:04:11;;;;;;;6.07;4.25;;;;;;;14.68;71.82;101090.81;10303742;28;20062;-63
2023/10/05 00:09:17;;;;;;;8.13;4.20;;;;;;;14.69;71.77;101092.53;10301334;28;20634;-64
2023/10/05 00:14:18;;;;;;;6.50;3.60;;;;;;;14.63;71.41;101082.34;10301857;28;20133;-64
2023/10/05 00:19:21;;;;;;;7.35;4.63;;;;;;;14.71;72.38;101079.00;10302982;28;20250;-64
2023/10/05 00:24:34;;;;;;;6.35;3.70;;;;;;;14.70;72.24;101072.81;10300525;28;20053;-66
2023/10/05 00:35:16;;;;;;;5.78;3.58;;;;;;;14.50;72.06;101067.28;10248615;28;20193;-64
2023/10/05 00:40:37;;;;;;;8.13;4.25;;;;;;;14.47;72.90;101051.47;10301562;28;20184;-64
2023/10/05 00:45:40;;;;;;;9.73;3.67;;;;;;;14.39;72.22;101051.25;10292034;28;20068;-66
2023/10/05 00:50:45;;;;;;;7.50;3.95;;;;;;;14.24;72.40;101049.84;10292783;28;20046;-64
2023/10/05 00:55:52;;;;;;;6.00;3.78;;;;;;;14.10;73.33;101038.47;10301893;28;20441;-64
2023/10/05 01:00:55;;;;;;;8.93;3.97;;;;;;;14.13;73.00;101048.06;10293539;28;20253;-64
2023/10/05 01:06:19;;;;;;;9.05;4.47;;;;;;;14.17;74.93;101054.00;10301239;28;20090;-64
2023/10/05 01:11:31;;;;;;;6.72;3.92;;;;;;;14.12;73.38;101049.88;10288815;28;20430;-65
2023/10/05 01:16:33;;;;;;;9.52;4.55;;;;;;;13.94;73.75;101033.50;10306717;28;20049;-65
2023/10/05 01:21:35;;;;;;;7.55;3.75;;;;;;;14.01;74.35;101049.94;10310788;28;20237;-65
2023/10/05 01:26:37;;;;;;;6.88;4.18;;;;;;;14.02;73.67;101035.59;10292237;28;20498;-64
2023/10/05 01:31:39;;;;;;;7.03;3.50;;;;;;;14.02;73.93;101035.59;10309179;28;20125;-64
2023/10/05 01:36:42;;;;;;;6.68;4.13;;;;;;;13.96;74.40;101038.75;10309981;28;20050;-62
2023/10/05 01:41:43;;;;;;;7.70;3.67;;;;;;;13.87;74.03;101026.13;10311496;28;20136;-66
2023/10/05 01:46:45;;;;;;;8.27;4.00;;;;;;;13.93;74.09;101036.31;10311424;28;20165;-66
2023/10/05 01:51:47;;;;;;;7.00;3.60;;;;;;;13.89;73.97;101035.72;10307717;28;20402;-64
2023/10/05 01:56:49;;;;;;;9.27;4.68;;;;;;;13.79;74.37;101040.97;10295055;28;20046;-64
2023/10/05 02:01:53;;;;;;;9.85;4.63;;;;;;;13.92;74.59;101040.00;10295931;28;20367;-65
2023/10/05 02:06:55;;;;;;;10.52;4.13;;;;;;;13.88;74.36;101034.03;10265861;28;20043;-65
2023/10/05 02:12:01;;;;;;;8.18;4.03;;;;;;;13.97;73.99;101048.47;10268802;28;20053;-65
2023/10/05 02:17:03;;;;;;;7.80;3.83;;;;;;;13.82;74.00;101028.34;10273169;28;20058;-64
2023/10/05 02:22:11;;;;;;;8.60;4.15;;;;;;;13.85;75.10;101033.44;10268709;28;20089;-64
2023/10/05 02:27:12;;;;;;;8.63;4.90;;;;;;;13.96;75.03;101041.41;10273239;28;20233;-65
2023/10/05 02:32:21;;;;;;;9.65;4.97;;;;;;;14.03;74.86;101028.38;10269289;28;20465;-65
2023/10/05 02:37:24;;;;;;;7.82;4.22;;;;;;;13.92;74.32;101002.53;10269104;28;20050;-66
2023/10/05 02:42:26;;;;;;;8.90;4.85;;;;;;;14.00;74.72;101031.31;10268684;28;20203;-65
2023/10/05 02:47:27;;;;;;;7.93;4.20;;;;;;;14.04;74.98;101033.63;10265381;28;20051;-65
2023/10/05 02:52:32;;;;;;;9.73;4.70;;;;;;;13.93;74.54;101031.84;10265107;28;20050;-63
2023/10/05 02:57:34;;;;;;;8.80;4.15;;;;;;;13.97;73.97;101035.09;10270585;28;20360;-64
2023/10/05 03:02:45;;;;;;;6.70;4.70;;;;;;;14.02;74.30;101043.63;10271510;28;20776;-63
2023/10/05 03:07:48;;;;;;;8.80;4.50;;;;;;;14.05;74.10;101043.34;10272329;28;20050;-64
2023/10/05 03:12:49;;;;;;;8.45;5.38;;;;;;;14.01;74.08;101044.59;10270975;28;20058;-64
2023/10/05 03:17:52;;;;;;;7.93;4.32;;;;;;;13.97;74.14;101037.78;10265299;28;20099;-66
2023/10/05 03:22:55;;;;;;;8.57;5.32;;;;;;;13.97;74.19;101043.13;10315412;28;20049;-65
2023/10/05 03:27:57;;;;;;;10.00;4.85;;;;;;;13.99;73.83;101041.19;10298480;28;20287;-65
2023/10/05 03:33:00;;;;;;;8.23;4.85;;;;;;;13.88;73.69;101033.19;10303607;28;20725;-66
2023/10/05 03:38:08;;;;;;;8.40;5.17;;;;;;;13.95;74.56;101055.78;10309205;28;20061;-64
2023/10/05 03:43:10;;;;;;;9.05;6.13;;;;;;;13.89;75.34;101049.13;10311691;28;20296;-64
2023/10/05 03:48:15;;;;;;;9.32;4.35;;;;;;;13.98;74.75;101060.91;10305921;28;20042;-64
2023/10/05 03:53:16;;;;;;;7.13;4.22;;;;;;;13.94;76.04;101062.13;10306151;28;20101;-64
2023/10/05 03:58:18;;;;;;;7.95;4.65;;;;;;;13.90;75.04;101036.56;10292668;28;20116;-66
2023/10/05 04:03:23;;;;;;;10.55;5.28;;;;;;;13.90;75.13;101023.19;10303335;28;20142;-64
2023/10/05 04:08:27;;;;;;;8.63;5.47;;;;;;;13.93;76.08;101020.25;10305032;28;20058;-65
2023/10/05 04:13:32;;;;;;;9.90;5.50;;;;;;;14.04;75.38;101033.63;10295589;28;20470;-63
2023/10/05 04:18:34;;;;;;;10.95;5.40;;;;;;;13.93;74.83;101026.47;10303171;28;20389;-65
2023/10/05 04:23:35;;;;;;;9.80;5.55;;;;;;;13.93;75.39;101025.59;10305268;28;20284;-64
2023/10/05 04:28:41;;;;;;;9.70;5.50;;;;;;;13.88;75.09;101030.50;10302807;28;20512;-66
2023/10/05 04:33:43;;;;;;;9.85;5.85;;;;;;;13.65;75.30;100992.28;10289070;28;20101;-64
2023/10/05 04:38:45;;;;;;;10.57;5.60;;;;;;;13.79;75.21;101014.22;10294339;28;20050;-65
2023/10/05 04:43:48;;;;;;;10.07;5.90;;;;;;;13.75;75.47;101018.13;10311512;28;20046;-65
2023/10/05 04:48:56;;;;;;;8.50;5.40;;;;;;;13.71;76.14;101016.69;10312020;28;20481;-65
2023/10/05 04:53:59;;;;;;;11.80;5.13;;;;;;;13.64;75.79;101018.16;10314823;28;20050;-64
2023/10/05 05:09:39;;;;;;;10.88;5.55;;;;;;;13.60;76.54;101008.66;10297013;28;20434;-65
2023/10/05 05:14:44;;;;;;;8.05;5.60;;;;;;;13.56;76.96;101020.63;10302430;28;20087;-66
2023/10/05 05:19:46;;;;;;;12.35;5.68;;;;;;;13.58;77.40;101024.00;10270689;28;20190;-66
2023/10/05 05:24:50;;;;;;;10.20;6.15;;;;;;;13.50;77.25;101013.09;10272911;28;20058;-64
2023/10/05 05:29:52;;;;;;;11.40;5.83;;;;;;;13.58;76.92;101032.88;10312062;28;20058;-65
2023/10/05 05:34:53;;;;;;;10.88;5.05;;;;;;;13.59;77.12;101034.56;10298272;28;20125;-64
2023/10/05 05:39:56;;;;;;;12.18;5.93;;;;;;;13.46;77.40;101036.53;10309659;28;20077;-66
2023/10/05 05:44:57;;;;;;;11.60;6.28;;;;;;;13.52;77.52;101048.56;10311573;28;20064;-64
2023/10/05 05:50:00;;;;;;;9.98;6.38;;;;;;;13.40;77.84;101018.31;10310556;28;20413;-64
2023/10/05 05:55:10;;;;;;;8.93;4.70;;;;;;;13.59;78.00;101049.78;10306329;28;20057;-66
2023/10/05 06:00:12;;;;;;;11.20;5.40;;;;;;;13.69;77.37;101052.56;10307240;28;20281;-66
2023/10/05 06:05:14;;;;;;;7.07;4.80;;;;;;;13.74;77.88;101053.06;10306920;28;20050;-64
2023/10/05 06:10:16;;;;;;;10.00;5.25;;;;;;;13.65;77.22;101035.91;10307955;28;20374;-64
2023/10/05 06:15:18;;;;;;;8.38;5.50;;;;;;;13.67;77.39;101052.69;10298176;28;20527;-63
2023/10/05 06:20:19;;;;;;;9.35;5.68;;;;;;;13.59;77.13;101049.78;10301432;28;20050;-65
2023/10/05 06:25:21;;;;;;;8.27;5.30;;;;;;;13.41;77.62;101049.44;10283496;28;20177;-65
2023/10/05 06:30:26;;;;;;;10.18;5.13;;;;;;;13.49;78.76;101060.34;10303493;28;20046;-64
2023/10/05 06:35:28;;;;;;;12.05;5.85;;;;;;;13.62;77.29;101065.59;10283523;28;20069;-64
2023/10/05 06:40:29;;;;;;;10.18;5.93;;;;;;;13.57;77.43;101067.75;10301928;28;20315;-65
2023/10/05 06:45:31;;;;;;;11.02;5.40;;;;;;;13.69;77.89;101072.16;10277808;28;20056;-64
2023/10/05 06:50:33;;;;;;;10.93;5.40;;;;;;;13.77;76.81;101074.19;10307163;28;20428;-65
2023/10/05 06:55:34;;;;;;;9.95;4.03;;;;;;;13.81;76.77;101064.09;10297532;28;20614;-68
2023/10/05 07:00:36;;;;;;;7.80;5.50;;;;;;;13.78;77.53;101044.66;10286899;28;20189;-69
2023/10/05 07:05:37;;;;;;;8.98;4.72;;;;;;;13.81;77.04;101062.28;10308038;28;20053;-69
2023/10/05 07:10:39;;;;;;;11.07;5.30;;;;;;;13.63;76.91;101032.53;10306193;28;20064;-69
2023/10/05 07:15:40;;;;;;;9.90;5.57;;;;;;;13.72;77.22;101063.00;10288942;28;20625;-67
2023/10/05 07:20:42;;;;;;;10.60;5.95;;;;;;;13.84;77.37;101090.59;10292830;28;20050;-66
2023/10/05 07:25:43;;;;;;;11.98;5.90;;;;;;;13.96;78.22;101101.16;10308253;28;20056;-67
2023/10/05 07:30:45;;;;;;;8.25;5.10;;;;;;;14.05;77.26;101099.56;10292885;28;20076;-66
2023/10/05 07:35:46;;;;;;;10.65;5.25;;;;;;;14.21;77.90;101109.03;10289510;28;20515;-68
2023/10/05 07:40:48;;;;;;;8.68;4.78;;;;;;;14.21;77.04;101092.94;10291364;28;20145;-64
2023/10/05 07:45:49;;;;;;;13.90;5.93;;;;;;;14.39;76.70;101106.66;10311274;28;20136;-64
2023/10/05 07:50:51;;;;;;;10.30;5.53;;;;;;;14.44;76.47;101113.31;10305987;28;20842;-66
2023/10/05 07:55:53;;;;;;;13.18;5.53;;;;;;;14.56;75.93;101105.22;10307593;28;20620;-67
2023/10/05 08:00:55;;;;;;;12.13;5.15;;;;;;;14.71;75.15;101106.63;10308396;28;20547;-65
2023/10/05 08:05:56;;;;;;;9.23;5.25;;;;;;;14.81;75.74;101107.56;10305236;28;20433;-67
2023/10/05 08:10:59;;;;;;;8.15;5.65;;;;;;;14.84;75.65;101095.75;10305150;28;20172;-65
2023/10/05 08:16:00;;;;;;;8.85;4.78;;;;;;;14.99;74.62;101115.03;10306286;28;20053;-64
2023/10/05 08:21:02;;;;;;;7.68;5.20;;;;;;;15.00;74.04;101111.38;10316617;28;20069;-66
2023/10/05 08:26:04;;;;;;;9.45;5.25;;;;;;;14.98;75.05;101098.09;10266679;28;20064;-66
2023/10/05 08:31:07;;;;;;;12.50;6.93;;;;;;;15.22;74.04;101125.59;10268354;28;20350;-66
2023/10/05 08:36:12;;;;;;;9.27;5.68;;;;;;;15.26;73.22;101127.88;10270520;28;20058;-66
2023/10/05 08:41:25;;;;;;;9.63;5.70;;;;;;;15.43;74.11;101134.47;10269488;28;20133;-65
2023/10/05 08:46:29;;;;;;;7.90;5.57;;;;;;;15.66;73.83;101132.47;10271738;28;20148;-66
2023/10/05 08:51:31;;;;;;;10.95;5.60;;;;;;;15.80;72.08;101147.38;10268168;28;20445;-65
2023/10/05 08:56:33;;;;;;;8.88;4.78;;;;;;;15.76;70.83;101129.78;10267099;28;20518;-66
2023/10/05 09:01:35;;;;;;;10.50;4.97;;;;;;;16.05;72.68;101134.47;10267258;28;20062;-64
2023/10/05 09:06:55;;;;;;;9.43;5.45;;;;;;;16.12;70.89;101097.13;10266664;28;20057;-65
2023/10/05 09:11:57;;;;;;;7.05;4.72;;;;;;;16.38;69.08;101129.72;10269379;28;20050;-65
2023/10/05 09:17:09;;;;;;;10.13;4.82;;;;;;;16.60;71.45;101145.56;10268374;28;20066;-62
2023/10/05 09:22:12;;;;;;;10.73;6.38;;;;;;;16.84;67.05;101136.19;10266562;28;20055;-65
2023/10/05 09:27:17;;;;;;;11.02;4.68;;;;;;;17.01;67.62;101129.28;10264538;28;20100;-60
2023/10/05 09:32:22;;;;;;;11.05;4.65;;;;;;;17.18;66.74;101140.28;10266123;28;20050;-62
2023/10/05 09:37:27;;;;;;;8.27;4.03;;;;;;;17.31;66.40;101143.53;10265822;28;20702;-61
2023/10/05 09:42:34;;;;;;;9.27;5.03;;;;;;;17.28;64.57;101150.03;10269763;28;20073;-61
2023/10/05 09:47:37;;;;;;;8.57;3.75;;;;;;;17.15;65.71;101154.88;10264137;28;20058;-65
2023/10/05 09:52:43;;;;;;;10.48;4.32;;;;;;;17.21;65.96;101146.22;10258245;28;20054;-61
2023/10/05 09:57:46;;;;;;;9.73;3.90;;;;;;;17.39;64.11;101145.47;10260809;28;20076;-61
2023/10/05 10:02:48;;;;;;;8.70;3.83;;;;;;;17.26;65.38;101143.97;10266023;28;20496;-62
2023/10/05 10:07:50;;;;;;;8.70;4.47;;;;;;;17.21;65.10;101143.53;10260907;28;20607;-61
2023/10/05 10:12:56;;;;;;;9.13;4.35;;;;;;;17.08;65.33;101145.69;10263708;28;20133;-64
2023/10/05 10:18:06;;;;;;;5.83;3.73;;;;;;;17.06;66.02;101151.19;10264074;28;20745;-63
2023/10/05 10:23:14;;;;;;;7.00;3.63;;;;;;;17.07;66.03;101135.91;10277227;28;20124;-63
2023/10/05 10:33:51;;;;;;;9.02;3.83;;;;;;;17.12;65.58;101156.00;10260235;28;20065;-63
2023/10/05 10:38:53;;;;;;;7.03;3.38;;;;;;;17.06;65.94;101139.59;10265144;28;20398;-66
2023/10/05 10:43:55;;;;;;;10.15;3.70;;;;;;;17.11;65.88;101153.47;10261861;28;20390;-65
2023/10/05 10:48:57;;;;;;;10.77;4.63;;;;;;;17.05;65.34;101152.19;10261760;28;20140;-65
2023/10/05 10:54:17;;;;;;;6.57;3.65;;;;;;;17.03;65.77;101162.25;10263527;28;20061;-65
2023/10/05 10:59:26;;;;;;;8.68;3.47;;;;;;;16.95;65.64;101160.28;10264248;28;20045;-66
2023/10/05 11:04:36;;;;;;;7.28;3.30;;;;;;;16.93;66.94;101167.66;10260626;28;20433;-64
2023/10/05 11:09:55;;;;;;;7.18;4.00;;;;;;;16.92;66.24;101149.81;10291134;28;20427;-65
2023/10/05 11:15:11;;;;;;;10.45;3.30;;;;;;;17.04;66.27;101149.63;10300721;28;20057;-65
2023/10/05 11:20:24;;;;;;;10.27;4.07;;;;;;;17.05;65.52;101159.41;10301311;28;20495;-65
2023/10/05 11:25:32;;;;;;;6.83;2.83;;;;;;;16.98;65.61;101156.47;10300867;28;20542;-65
2023/10/05 11:30:45;;;;;;;7.63;3.97;;;;;;;17.01;66.44;101155.31;10302876;28;20560;-65
2023/10/05 11:36:04;;;;;;;5.57;3.00;;;;;;;17.08;65.75;101141.16;10304241;28;20054;-65
2023/10/05 11:41:16;;;;;;;8.45;3.72;;;;;;;17.11;66.58;101145.38;10290560;28;20472;-66
2023/10/05 11:46:24;;;;;;;6.45;2.70;;;;;;;17.03;66.28;101124.59;10306486;28;20096;-65
2023/10/05 11:51:41;;;;;;;7.32;3.17;;;;;;;17.26;65.77;101135.88;10290962;28;20169;-65
2023/10/05 11:56:43;;;;;;;4.82;2.38;;;;;;;17.25;65.82;101134.19;10289081;28;20045;-65
2023/10/05 12:01:45;;;;;;;7.10;2.05;;;;;;;17.24;64.66;101108.25;10286647;28;20586;-64
2023/10/05 12:06:52;;;;;;;6.47;2.42;;;;;;;17.18;63.30;101095.41;10290847;28;20054;-65
2023/10/05 12:11:54;;;;;;;4.57;2.03;;;;;;;17.13;64.16;101079.69;10304140;28;20045;-65
2023/10/05 12:16:56;;;;;;;5.35;2.00;;;;;;;17.23;64.63;101087.72;10302053;28;20225;-66
2023/10/05 12:21:59;;;;;;;7.53;2.80;;;;;;;17.27;64.84;101117.88;10302402;28;20725;-65
2023/10/05 12:27:13;;;;;;;6.17;2.33;;;;;;;17.18;65.77;101106.16;10289607;28;20079;-64
2023/10/05 12:32:14;;;;;;;7.23;2.50;;;;;;;17.38;65.42;101106.94;10303254;28;20410;-66
2023/10/05 12:37:17;;;;;;;4.25;2.13;;;;;;;17.41;64.57;101111.19;10299762;28;20068;-65
2023/10/05 12:42:19;;;;;;;6.82;2.28;;;;;;;17.43;63.44;101109.19;10303254;28;20501;-65
2023/10/05 12:47:23;;;;;;;5.20;2.20;;;;;;;17.47;63.47;101103.38;10298555;28;20061;-64
2023/10/05 12:52:24;;;;;;;6.47;2.13;;;;;;;17.57;64.80;101111.41;10301381;28;20065;-65
2023/10/05 12:57:26;;;;;;;7.10;2.53;;;;;;;17.62;62.39;101117.16;10300163;28;20054;-65
2023/10/05 13:02:27;;;;;;;8.43;2.53;;;;;;;17.43;62.95;101103.78;10306701;28;20053;-64
2023/10/05 13:07:30;;;;;;;7.75;2.65;;;;;;;17.60;61.95;101121.03;10312938;28;20057;-65
2023/10/05 13:12:34;;;;;;;5.75;1.60;;;;;;;17.62;63.69;101125.25;10311563;28;21753;-64
2023/10/05 13:17:38;;;;;;;;;;;;;;;17.59;62.42;101127.41;10309108;28;20068;-64
2023/10/05 13:22:44;;;;;;;4.75;1.88;;;;;;;17.51;61.67;101112.00;10299554;28;20466;-65
2023/10/05 13:27:46;;;;;;;6.80;2.00;;;;;;;17.48;61.22;101106.91;10301837;28;20085;-65
2023/10/05 13:32:49;;;;;;;6.85;2.88;;;;;;;17.60;61.87;101113.78;10311687;28;20054;-67
2023/10/05 13:37:50;;;;;;;5.97;2.20;;;;;;;17.67;62.07;101093.34;10313054;28;20148;-65
2023/10/05 13:42:52;;;;;;;5.63;2.13;;;;;;;17.58;60.42;101096.09;10309258;28;20081;-67
2023/10/05 13:47:53;;;;;;;4.43;1.80;;;;;;;17.45;61.89;101091.91;10307773;28;20069;-65
2023/10/05 13:52:57;;;;;;;4.13;1.90;;;;;;;17.47;62.95;101094.44;10305830;28;20447;-66
2023/10/05 13:58:00;;;;;;;3.83;1.63;;;;;;;17.40;62.86;101102.28;10310825;28;20336;-66
2023/10/05 14:03:02;;;;;;;3.63;1.83;;;;;;;17.44;64.25;101094.72;10307601;28;20457;-66
2023/10/05 14:08:10;;;;;;;6.97;2.40;;;;;;;17.45;62.20;101096.44;10304351;28;20184;-65
2023/10/05 14:13:16;;;;;;;4.85;1.80;;;;;;;17.49;63.93;101097.84;10307890;28;20049;-65
2023/10/05 14:18:17;;;;;;;8.00;2.55;;;;;;;17.37;62.25;101110.63;10269268;28;20046;-66
2023/10/05 14:23:19;;;;;;;3.95;1.63;;;;;;;17.40;63.97;101121.09;10255402;28;20193;-65
2023/10/05 14:28:23;;;;;;;4.53;1.98;;;;;;;17.55;64.52;101121.47;10266533;28;20114;-63
2023/10/05 14:33:26;;;;;;;4.22;1.83;;;;;;;17.82;63.42;101131.41;10269045;28;20051;-66
2023/10/05 14:38:29;;;;;;;4.53;1.90;;;;;;;18.16;63.30;101124.56;10263432;28;20069;-64
2023/10/05 14:43:31;;;;;;;2.80;1.73;;;;;;;18.26;60.69;101130.75;10263600;28;20046;-66
2023/10/05 14:48:32;;;;;;;5.28;1.80;;;;;;;18.27;60.99;101129.75;10263736;28;20050;-67
2023/10/05 14:53:36;;;;;;;3.75;1.48;;;;;;;18.10;60.03;101127.88;10260440;28;20058;-65
2023/10/05 14:58:38;;;;;;;;;;;;;;;17.87;59.27;101116.66;10262154;28;20051;-62
2023/10/05 15:03:41;;;;;;;6.55;2.22;;;;;;;17.78;60.15;101118.41;10260071;28;19929;-64
2023/10/05 15:08:45;;;;;;;5.03;2.00;;;;;;;17.79;60.71;101120.06;10259190;28;20356;-65
2023/10/05 15:13:49;;;;;;;4.45;1.60;;;;;;;17.76;60.95;101123.06;10260617;28;21411;-64
2023/10/05 15:18:51;;;;;;;4.70;1.47;;;;;;;17.88;60.76;101112.94;10259968;28;20225;-62
2023/10/05 15:23:52;;;;;;;2.83;1.70;;;;;;;17.91;60.25;101109.97;10258133;28;20552;-64
2023/10/05 15:28:53;;;;;;;3.70;1.67;;;;;;;17.92;61.89;101103.59;10259098;28;20466;-64
2023/10/05 15:33:55;;;;;;;4.07;1.55;;;;;;;17.87;60.66;101112.09;10258475;28;20050;-65
2023/10/05 15:38:57;;;;;;;4.25;1.73;;;;;;;17.86;61.49;101115.78;10256678;28;20189;-65
2023/10/05 15:43:59;;;;;;;4.07;1.92;;;;;;;17.66;60.38;101088.13;10262101;28;20058;-64
2023/10/05 15:49:00;;;;;;;5.07;2.17;;;;;;;17.65;61.60;101097.19;10256066;28;20545;-65
2023/10/05 15:54:02;;;;;;;8.35;2.00;;;;;;;17.54;61.87;101084.78;10265482;28;20116;-62
2023/10/05 15:59:03;;;;;;;5.72;2.00;;;;;;;17.50;61.57;101091.44;10264174;28;20163;-62
2023/10/05 16:04:09;;;;;;;4.70;2.33;;;;;;;17.63;63.26;101120.72;10262552;28;20085;-64
2023/10/05 16:09:15;;;;;;;5.97;2.22;;;;;;;17.61;62.94;101120.00;10264242;28;20054;-64
2023/10/05 16:14:16;;;;;;;5.90;2.55;;;;;;;17.54;63.99;101106.31;10265712;28;20081;-64
2023/10/05 16:19:18;;;;;;;7.28;2.42;;;;;;;17.49;63.26;101100.53;10272546;28;20507;-64
2023/10/05 16:24:19;;;;;;;6.88;3.15;;;;;;;17.50;63.32;101110.28;10266756;28;20057;-65
2023/10/05 16:29:21;;;;;;;3.97;1.95;;;;;;;17.47;63.12;101114.16;10245706;28;20142;-64
2023/10/05 16:34:22;;;;;;;6.03;2.20;;;;;;;17.40;64.46;101117.56;10263044;28;20066;-65
2023/10/05 16:39:24;;;;;;;6.75;2.45;;;;;;;17.39;64.78;101119.41;10266933;28;20058;-63
2023/10/05 16:44:25;;;;;;;3.55;1.77;;;;;;;17.36;63.88;101127.78;10264709;28;20065;-64
2023/10/05 16:49:26;;;;;;;4.20;2.30;;;;;;;17.30;64.75;101126.50;10274127;28;20685;-65
2023/10/05 16:54:28;;;;;;;6.65;2.67;;;;;;;17.20;64.75;101116.78;10259701;28;20053;-65
2023/10/05 16:59:30;;;;;;;5.00;2.67;;;;;;;17.18;66.05;101130.38;10268482;28;20058;-66
2023/10/05 17:04:31;;;;;;;7.05;2.08;;;;;;;17.17;65.29;101142.13;10273434;28;20160;-65
2023/10/05 17:09:33;;;;;;;3.72;2.38;;;;;;;17.20;66.19;101144.50;10274482;28;20476;-64
2023/10/05 17:14:34;;;;;;;5.93;3.45;;;;;;;17.10;66.13;101131.09;10270728;28;20097;-65
2023/10/05 17:19:36;;;;;;;5.97;3.45;;;;;;;17.17;66.21;101149.34;10274389;28;20046;-64
2023/10/05 17:24:39;;;;;;;11.23;4.22;;;;;;;17.06;66.13;101135.06;10269171;28;20046;-66
2023/10/05 17:29:42;;;;;;;10.77;7.43;;;;;;;17.09;66.69;101155.44;10268034;28;20054;-65
2023/10/05 17:34:47;;;;;;;9.43;3.97;;;;;;;17.05;65.85;101154.03;10272540;28;20053;-63
2023/10/05 17:39:49;;;;;;;5.95;4.35;;;;;;;16.93;66.62;101139.91;10271198;28;20071;-64
2023/10/05 17:44:51;;;;;;;7.00;3.67;;;;;;;16.90;66.15;101157.19;10269511;28;20156;-65
2023/10/05 17:49:56;;;;;;;7.82;3.95;;;;;;;16.79;66.83;101150.06;10265088;28;21343;-64
2023/10/05 17:54:57;;;;;;;8.25;3.65;;;;;;;16.76;67.74;101149.50;10268509;28;20050;-65
2023/10/05 17:59:58;;;;;;;8.60;4.72;;;;;;;16.77;67.70;101145.84;10265889;28;20434;-63
2023/10/05 18:05:02;;;;;;;9.30;5.47;;;;;;;16.66;68.16;101137.91;10270541;28;20758;-65
2023/10/05 18:10:07;;;;;;;7.18;5.75;;;;;;;16.64;67.78;101145.28;10272809;28;20065;-65
2023/10/05 18:15:09;;;;;;;7.82;5.60;;;;;;;16.53;68.34;101132.78;10269927;28;20058;-64
2023/10/05 18:20:14;;;;;;;9.00;5.13;;;;;;;16.56;69.21;101144.13;10266731;28;20331;-64
2023/10/05 18:25:20;;;;;;;8.35;4.57;;;;;;;16.47;69.59;101131.53;10263699;28;20170;-65
2023/10/05 18:30:21;;;;;;;10.55;5.10;;;;;;;16.56;69.00;101160.25;10268062;28;20530;-65
2023/10/05 18:35:23;;;;;;;9.75;5.20;;;;;;;16.53;69.74;101165.03;10263247;28;20216;-65
2023/10/05 18:40:24;;;;;;;7.88;4.72;;;;;;;16.51;70.48;101159.81;10266657;28;20528;-66
2023/10/05 18:45:29;;;;;;;11.45;5.72;;;;;;;16.44;70.89;101147.94;10260154;28;20658;-64
2023/10/05 18:50:30;;;;;;;9.82;5.30;;;;;;;16.43;71.32;101157.81;10265060;28;20688;-65
2023/10/05 18:55:33;;;;;;;9.40;5.47;;;;;;;16.51;72.23;101172.41;10262714;28;20500;-65
2023/10/05 19:00:35;;;;;;;9.57;6.15;;;;;;;16.47;72.25;101179.03;10263361;28;20196;-66
2023/10/05 19:05:36;;;;;;;7.13;4.57;;;;;;;16.47;72.19;101161.09;10262484;28;20970;-65
2023/10/05 19:10:38;;;;;;;7.90;4.93;;;;;;;16.05;71.57;101102.22;10265055;28;20120;-65
2023/10/05 19:15:39;;;;;;;8.75;4.82;;;;;;;16.39;70.92;101159.13;10279470;28;20152;-68
2023/10/05 19:20:41;;;;;;;7.55;5.35;;;;;;;16.25;70.68;101152.28;10263025;28;20057;-66
2023/10/05 19:25:43;;;;;;;6.68;5.13;;;;;;;16.35;71.74;101175.63;10263425;28;20058;-65
2023/10/05 19:30:44;;;;;;;8.82;3.97;;;;;;;16.33;72.17;101174.94;10262950;28;20061;-66
2023/10/05 19:35:46;;;;;;;7.95;4.30;;;;;;;16.29;72.32;101168.13;10258115;28;20352;-65
2023/10/05 19:40:49;;;;;;;7.28;4.22;;;;;;;16.08;72.86;101144.91;10265761;28;20050;-65
2023/10/05 19:45:51;;;;;;;7.90;4.28;;;;;;;16.20;72.33;101176.03;10262936;28;20670;-65
2023/10/05 19:50:52;;;;;;;6.15;4.00;;;;;;;16.20;72.46;101172.53;10263338;28;20099;-65
2023/10/05 19:55:55;;;;;;;7.78;4.25;;;;;;;16.15;72.43;101172.06;10259480;28;20058;-65
2023/10/05 20:00:57;;;;;;;7.13;4.13;;;;;;;16.23;73.08;101186.50;10262231;28;20832;-64
2023/10/05 20:05:58;;;;;;;8.48;4.55;;;;;;;16.18;72.51;101178.03;10263904;28;20216;-67
2023/10/05 20:11:11;;;;;;;10.23;4.55;;;;;;;16.20;73.19;101191.31;10261233;28;20066;-65
2023/10/05 20:16:16;;;;;;;7.57;5.40;;;;;;;16.20;72.65;101200.22;10262381;28;20038;-64
2023/10/05 20:21:17;;;;;;;6.72;4.50;;;;;;;16.17;73.18;101186.19;10261663;28;20058;-65
2023/10/05 20:26:20;;;;;;;7.05;4.30;;;;;;;16.13;73.36;101185.63;10262031;28;20054;-65
2023/10/05 20:31:21;;;;;;;8.93;5.15;;;;;;;16.06;73.50;101171.03;10259003;28;20073;-65
2023/10/05 20:36:23;;;;;;;11.27;5.97;;;;;;;15.98;72.22;101182.47;10259025;28;20124;-65
2023/10/05 20:41:25;;;;;;;9.02;5.07;;;;;;;15.95;73.47;101187.28;10266095;28;20154;-63
2023/10/05 20:46:26;;;;;;;11.20;4.82;;;;;;;15.83;73.13;101173.94;10264519;28;20133;-64
2023/10/05 20:51:28;;;;;;;8.88;5.15;;;;;;;15.78;73.56;101183.38;10262484;28;20050;-64
2023/10/05 20:56:29;;;;;;;7.93;5.63;;;;;;;15.76;73.28;101178.09;10262099;28;20074;-63
2023/10/05 21:01:31;;;;;;;11.77;5.38;;;;;;;15.67;73.92;101179.78;10265210;28;20670;-63
2023/10/05 21:06:32;;;;;;;9.98;5.70;;;;;;;15.70;74.33;101201.00;10268905;28;20042;-67
2023/10/05 21:11:34;;;;;;;10.05;5.82;;;;;;;15.65;74.57;101194.31;10260821;28;20152;-63
2023/10/05 21:16:36;;;;;;;11.80;7.72;;;;;;;15.62;74.42;101197.28;10261183;28;20070;-65
2023/10/05 21:21:38;;;;;;;8.50;6.65;;;;;;;15.52;74.45;101198.06;10265476;28;20054;-64
2023/10/05 21:26:42;;;;;;;10.73;6.55;;;;;;;15.52;74.26;101202.56;10269015;28;20050;-63
2023/10/05 21:31:44;;;;;;;8.77;5.63;;;;;;;15.47;74.71;101199.44;10270281;28;20057;-63
2023/10/05 21:36:45;;;;;;;9.82;6.07;;;;;;;15.42;74.44;101207.03;10268818;28;20065;-64
2023/10/05 21:41:47;;;;;;;9.35;5.70;;;;;;;15.27;75.21;101193.13;10266798;28;20056;-63
2023/10/05 21:46:49;;;;;;;8.07;5.35;;;;;;;15.32;75.08;101197.09;10275494;28;20058;-62
2023/10/05 21:51:50;;;;;;;8.85;5.30;;;;;;;15.23;75.19;101197.03;10272221;28;20062;-63
2023/10/05 21:56:52;;;;;;;8.43;5.05;;;;;;;15.24;75.09;101204.97;10265350;28;20746;-62
2023/10/05 22:01:54;;;;;;;8.93;6.38;;;;;;;15.24;75.09;101209.44;10289080;28;20130;-63
2023/10/05 22:06:55;;;;;;;10.20;6.97;;;;;;;15.16;75.81;101194.88;10271773;28;20937;-63
2023/10/05 22:11:57;;;;;;;9.48;5.20;;;;;;;15.10;75.17;101190.06;10277926;28;20070;-64
2023/10/05 22:16:58;;;;;;;7.05;4.78;;;;;;;15.11;75.45;101196.25;10270753;28;20205;-62
2023/10/05 22:21:59;;;;;;;8.68;5.88;;;;;;;15.09;76.43;101207.09;10266872;28;20092;-63
2023/10/05 22:27:01;;;;;;;8.27;5.10;;;;;;;14.88;75.66;101171.38;10265772;28;20094;-64
2023/10/05 22:32:03;;;;;;;10.57;5.82;;;;;;;15.03;75.52;101203.09;10268406;28;20130;-63
2023/10/05 22:37:05;;;;;;;7.85;4.93;;;;;;;15.01;75.92;101199.72;10268912;28;20117;-63
2023/10/05 22:42:06;;;;;;;9.60;4.30;;;;;;;14.92;75.88;101189.78;10274308;28;20050;-64
2023/10/05 22:47:09;;;;;;;7.93;5.65;;;;;;;14.93;75.83;101217.41;10263582;28;20084;-65
2023/10/05 22:52:10;;;;;;;8.65;5.35;;;;;;;14.90;75.87;101218.53;10267280;28;20046;-63
2023/10/05 22:57:11;;;;;;;7.65;5.18;;;;;;;14.80;76.13;101212.22;10265239;28;20470;-65
2023/10/05 23:02:14;;;;;;;7.50;5.38;;;;;;;14.81;76.53;101220.13;10270228;28;20053;-65
2023/10/05 23:07:17;;;;;;;6.53;4.90;;;;;;;14.72;76.49;101215.53;10264028;28;20134;-64
2023/10/05 23:12:18;;;;;;;7.63;5.25;;;;;;;14.78;76.68;101241.00;10268120;28;20049;-64
2023/10/05 23:17:23;;;;;;;7.70;5.10;;;;;;;14.74;76.65;101240.41;10269263;28;20050;-62
2023/10/05 23:22:25;;;;;;;7.25;5.05;;;;;;;14.74;76.92;101244.88;10270276;28;20046;-64
2023/10/05 23:27:26;;;;;;;5.90;4.90;;;;;;;14.66;76.67;101224.94;10268234;28;20553;-63
2023/10/05 23:32:28;;;;;;;7.00;4.75;;;;;;;14.66;76.12;101237.50;10268449;28;20621;-64
2023/10/05 23:37:30;;;;;;;6.57;4.07;;;;;;;14.56;76.85;101236.50;10267544;28;20435;-63